createdAt,value
2017-11-08T00:11:29.113Z,68.0
2017-11-08T00:28:16.603Z,68.0
2017-11-08T00:45:03.965Z,68.0
2017-11-08T01:01:51.249Z,68.0
2017-11-08T01:18:38.619Z,68.0
2017-11-08T01:35:25.642Z,68.0
2017-11-08T01:52:12.876Z,68.0
2017-11-08T02:09:00.067Z,68.0
2017-11-08T02:25:47.103Z,68.0
2017-11-08T02:42:34.457Z,68.0
2017-11-08T02:59:21.241Z,67.2
2017-11-08T03:16:08.473Z,67.2
2017-11-08T03:32:55.328Z,67.2
2017-11-08T03:49:42.452Z,67.2
2017-11-08T04:06:29.527Z,67.2
2017-11-08T04:23:16.534Z,67.2
2017-11-08T04:40:03.491Z,67.2
2017-11-08T04:56:50.514Z,67.2
2017-11-08T05:13:37.413Z,67.2
2017-11-08T05:30:24.369Z,67.2
2017-11-08T05:47:11.213Z,67.2
2017-11-08T06:03:58.176Z,66.8
2017-11-08T06:20:45.137Z,66.8
2017-11-08T06:37:32.272Z,66.8
2017-11-08T06:54:19.321Z,65.6
2017-11-08T07:11:06.231Z,64.8
2017-11-08T07:27:53.863Z,64.4
2017-11-08T07:44:39.988Z,64.4
2017-11-08T08:01:26.984Z,64.8
2017-11-08T08:18:15.443Z,64.8
2017-11-08T08:35:00.194Z,64.4
2017-11-08T08:51:46.491Z,64.4
2017-11-08T09:08:33.086Z,64.8
2017-11-08T09:25:19.670Z,64.4
2017-11-08T09:42:06.261Z,64.8
2017-11-08T09:58:53.307Z,65.2
2017-11-08T10:15:40.394Z,65.2
2017-11-08T10:32:27.479Z,65.2
2017-11-08T10:49:14.496Z,64.4
2017-11-08T11:06:01.639Z,64.8
2017-11-08T11:22:48.845Z,64.8
2017-11-08T11:39:36.086Z,65.2
2017-11-08T11:56:23.278Z,64.8
2017-11-08T12:13:10.623Z,64.8
2017-11-08T12:29:57.848Z,65.2
2017-11-08T12:46:45.370Z,64.8
2017-11-08T13:03:32.328Z,64.8
2017-11-08T13:20:19.678Z,64.8
2017-11-08T13:37:07.032Z,65.2
2017-11-08T13:53:54.249Z,65.2
2017-11-08T14:10:41.460Z,65.2
2017-11-08T14:27:28.787Z,65.2
2017-11-08T14:44:16.021Z,65.2
2017-11-08T15:01:03.441Z,65.2
2017-11-08T15:17:50.796Z,65.6
2017-11-08T15:34:38.326Z,65.6
2017-11-08T15:51:25.820Z,65.6
2017-11-08T16:08:13.306Z,65.6
2017-11-08T16:25:00.702Z,65.6
2017-11-08T16:41:48.191Z,66.4
2017-11-08T16:58:35.744Z,66.4
2017-11-08T17:15:23.186Z,66.4
2017-11-08T17:32:10.787Z,66.4
2017-11-08T17:48:58.294Z,66.4
2017-11-08T18:05:46.029Z,66.4
2017-11-08T18:22:33.527Z,66.8
2017-11-08T18:39:21.352Z,66.8
2017-11-08T18:56:08.740Z,66.8
2017-11-08T19:12:56.340Z,66.8
2017-11-08T19:29:44.028Z,66.8
2017-11-08T19:46:31.769Z,66.8
2017-11-08T20:03:19.435Z,66.8
2017-11-08T20:20:07.063Z,66.8
2017-11-08T20:36:54.759Z,66.8
2017-11-08T20:53:42.431Z,66.8
2017-11-08T21:10:30.084Z,66.8
2017-11-08T21:27:17.682Z,66.8
2017-11-08T21:44:05.441Z,66.8
2017-11-08T22:00:53.149Z,66.8
2017-11-08T22:17:40.819Z,66.8
2017-11-08T22:34:28.617Z,66.8
2017-11-08T22:51:16.515Z,66.8
2017-11-08T23:08:04.498Z,66.4
2017-11-08T23:24:52.475Z,66.4
2017-11-08T23:41:40.487Z,66.4
2017-11-08T23:58:28.412Z,66.4
